Time;durP1;ratioP1;P1;durP2;ratioP2;P2;SDS_P1;SDS_P2;PMS_P1;PMS_P2;Temp;Humidity;BMP_temperature;BMP_pressure;BME280_temperature;BME280_humidity;BME280_pressure;Samples;Min_cycle;Max_cycle;Signal;HPM_P1;HPM_P2
2022/10/31 00:01:23;;;;;;;42.05;26.73;;;;;;;8.55;80.52;101619.27;1729805;82;21097;-89
2022/10/31 00:03:50;;;;;;;37.58;24.87;;;;;;;8.53;80.39;101625.28;1730063;82;21565;-88
2022/10/31 00:06:18;;;;;;;40.45;25.12;;;;;;;8.44;80.42;101616.98;1729715;82;21865;-89
2022/10/31 00:08:53;;;;;;;36.25;25.17;;;;;;;8.44;80.48;101622.22;1699446;82;21128;-88
2022/10/31 00:11:20;;;;;;;35.55;24.10;;;;;;;8.43;80.56;101620.02;1728506;82;22106;-89
2022/10/31 00:13:46;;;;;;;36.98;24.35;;;;;;;8.41;80.52;101620.33;1728608;82;21552;-88
2022/10/31 00:16:16;;;;;;;35.55;24.75;;;;;;;8.39;80.60;101618.05;1728437;82;21067;-89
2022/10/31 00:18:43;;;;;;;36.15;24.85;;;;;;;8.37;80.62;101612.72;1730166;81;21817;-88
2022/10/31 00:21:10;;;;;;;40.05;26.17;;;;;;;8.35;80.62;101613.06;1724730;82;21000;-88
2022/10/31 00:23:37;;;;;;;43.92;25.57;;;;;;;8.33;80.66;101616.42;1709144;83;21889;-88
2022/10/31 00:26:04;;;;;;;44.70;25.32;;;;;;;8.32;80.73;101616.84;1709927;83;21478;-88
2022/10/31 00:28:31;;;;;;;39.60;26.50;;;;;;;8.29;80.70;101617.99;1710801;83;21040;-88
2022/10/31 00:31:05;;;;;;;43.35;24.72;;;;;;;8.28;80.70;101620.15;1710566;83;21731;-88
2022/10/31 00:33:33;;;;;;;39.00;25.23;;;;;;;8.25;80.68;101620.41;1692528;83;20976;-88
2022/10/31 00:36:00;;;;;;;35.15;23.20;;;;;;;8.25;80.78;101619.98;1710623;83;21414;-88
2022/10/31 00:38:27;;;;;;;35.40;23.70;;;;;;;8.24;80.76;101613.35;1710664;83;21070;-88
2022/10/31 00:40:54;;;;;;;34.10;22.07;;;;;;;8.24;80.86;101621.22;1710389;82;21006;-88
2022/10/31 00:43:20;;;;;;;31.85;22.65;;;;;;;8.26;81.03;101625.73;1710614;83;21723;-89
2022/10/31 00:45:47;;;;;;;29.77;20.68;;;;;;;8.24;80.83;101628.70;1710594;83;21548;-88
2022/10/31 00:48:14;;;;;;;33.92;21.48;;;;;;;8.23;80.88;101628.62;1710572;82;20992;-88
2022/10/31 00:50:41;;;;;;;34.65;21.23;;;;;;;8.26;81.08;101620.49;1710481;83;21047;-88
2022/10/31 00:53:08;;;;;;;31.40;20.80;;;;;;;8.27;81.04;101625.31;1692454;83;21012;-88
2022/10/31 00:55:35;;;;;;;33.78;20.48;;;;;;;8.25;80.92;101626.97;1710565;83;21730;-88
2022/10/31 00:58:01;;;;;;;30.25;20.95;;;;;;;8.23;81.00;101628.20;1710528;83;20999;-88
2022/10/31 01:00:28;;;;;;;29.07;19.85;;;;;;;8.25;81.03;101619.10;1710555;83;21102;-88
2022/10/31 01:02:55;;;;;;;29.87;21.40;;;;;;;8.25;81.07;101627.86;1710019;83;21423;-89
2022/10/31 01:05:22;;;;;;;39.18;21.48;;;;;;;8.24;81.05;101623.45;1717023;83;21071;-88
2022/10/31 01:07:49;;;;;;;29.55;20.82;;;;;;;8.24;81.15;101628.70;1708810;83;21863;-89
2022/10/31 01:10:16;;;;;;;32.50;20.40;;;;;;;8.24;81.07;101636.57;1708886;83;21032;-88
2022/10/31 01:12:44;;;;;;;34.35;21.42;;;;;;;8.21;81.03;101635.09;1694311;82;20900;-88
2022/10/31 01:15:13;;;;;;;33.60;22.10;;;;;;;8.22;81.20;101635.98;1673847;85;20991;-88
2022/10/31 01:17:39;;;;;;;30.05;21.17;;;;;;;8.24;81.39;101635.26;1672672;85;21071;-89
2022/10/31 01:20:07;;;;;;;30.55;21.95;;;;;;;8.26;81.37;101638.85;1672715;85;21733;-88
2022/10/31 01:22:34;;;;;;;33.25;20.55;;;;;;;8.28;81.39;101645.49;1696805;83;21428;-88
2022/10/31 01:25:01;;;;;;;33.70;22.13;;;;;;;8.27;81.29;101644.56;1709211;83;21581;-88
2022/10/31 01:27:29;;;;;;;36.73;23.75;;;;;;;8.27;81.35;101646.30;1708955;83;21103;-88
2022/10/31 01:29:56;;;;;;;30.50;20.97;;;;;;;8.30;81.52;101642.11;1709187;83;21009;-89
2022/10/31 01:32:23;;;;;;;31.42;20.80;;;;;;;8.32;81.47;101644.39;1709234;83;22613;-89
2022/10/31 01:34:49;;;;;;;28.15;20.02;;;;;;;8.35;81.60;101639.69;1709176;83;21624;-88
2022/10/31 01:37:16;;;;;;;30.75;20.90;;;;;;;8.38;81.62;101635.48;1709149;83;21138;-88
2022/10/31 01:39:43;;;;;;;34.10;20.68;;;;;;;8.38;81.54;101640.73;1709086;83;21055;-88
2022/10/31 01:42:19;;;;;;;34.10;20.00;;;;;;;8.42;81.71;101630.44;1709252;83;21683;-88
2022/10/31 01:44:56;;;;;;;34.00;20.68;;;;;;;8.49;81.90;101637.78;1716682;83;21814;-89
2022/10/31 01:47:39;;;;;;;32.13;19.40;;;;;;;8.59;82.06;101638.69;1710703;82;21446;-88
2022/10/31 01:50:13;;;;;;;30.02;20.48;;;;;;;8.65;81.88;101648.19;1709839;83;21059;-88
2022/10/31 01:52:43;;;;;;;;;;;;;;;8.74;81.91;101651.21;1711718;83;21094;-89
2022/10/31 01:55:17;;;;;;;31.95;18.82;;;;;;;8.83;81.94;101639.36;1708526;82;20220;-89
2022/10/31 01:57:47;;;;;;;28.95;19.02;;;;;;;8.90;81.74;101637.09;1707028;83;21759;-88
2022/10/31 02:00:14;;;;;;;32.13;18.32;;;;;;;8.95;81.81;101638.59;1707637;83;21652;-88
2022/10/31 02:02:42;;;;;;;28.70;20.15;;;;;;;9.01;81.78;101638.90;1715691;82;21031;-88
2022/10/31 02:05:13;;;;;;;26.35;18.87;;;;;;;9.09;81.73;101638.82;1707562;83;21051;-89
2022/10/31 02:08:11;;;;;;;29.98;20.62;;;;;;;9.17;81.70;101643.10;1716884;82;21011;-88
2022/10/31 02:10:37;;;;;;;32.15;19.95;;;;;;;9.23;81.68;101643.37;1708864;83;21842;-88
2022/10/31 02:13:06;;;;;;;31.97;21.48;;;;;;;9.29;81.49;101646.69;1689288;83;21533;-88
2022/10/31 02:15:32;;;;;;;29.72;20.62;;;;;;;9.36;81.41;101655.75;1715157;83;21071;-88
2022/10/31 02:17:59;;;;;;;27.77;20.30;;;;;;;9.43;81.44;101649.94;1707669;83;21614;-88
2022/10/31 02:20:33;;;;;;;28.52;19.65;;;;;;;9.50;81.38;101645.45;1708812;83;21078;-89
2022/10/31 02:23:44;;;;;;;28.80;20.12;;;;;;;9.53;81.24;101642.53;1710670;82;21813;-88
2022/10/31 02:26:31;;;;;;;27.77;19.10;;;;;;;9.55;81.15;101641.27;1683052;83;21454;-88
2022/10/31 02:29:18;;;;;;;26.37;19.75;;;;;;;9.61;81.12;101644.18;1711996;83;21109;-88
2022/10/31 02:32:02;;;;;;;29.02;19.70;;;;;;;9.66;81.03;101640.42;1683481;85;21091;-88
2022/10/31 02:34:37;;;;;;;;;;;;;;;9.69;80.85;101637.94;1714598;83;21429;-88
2022/10/31 02:37:37;;;;;;;34.95;20.20;;;;;;;9.69;80.73;101641.88;1712074;83;21832;-89
2022/10/31 02:40:39;;;;;;;32.42;20.90;;;;;;;9.69;80.70;101641.88;1707074;82;21085;-88
2022/10/31 02:43:13;;;;;;;36.68;21.60;;;;;;;9.68;80.62;101647.53;1713904;82;21056;-88
2022/10/31 02:45:57;;;;;;;37.03;20.95;;;;;;;9.63;80.54;101652.10;1715188;83;21066;-88
2022/10/31 02:48:28;;;;;;;;;;;;;;;9.55;80.34;101655.72;1713745;83;20977;-88
2022/10/31 02:50:58;;;;;;;36.13;22.52;;;;;;;9.47;80.38;101662.38;1715269;83;22538;-89
2022/10/31 02:53:24;;;;;;;37.53;23.87;;;;;;;9.38;80.32;101664.17;1688638;83;21483;-88
2022/10/31 02:56:05;;;;;;;35.00;23.25;;;;;;;9.39;80.50;101665.98;1714501;83;21045;-88
2022/10/31 02:58:36;;;;;;;37.95;22.82;;;;;;;9.39;80.54;101665.98;1713608;82;21550;-89
2022/10/31 03:01:36;;;;;;;36.88;24.00;;;;;;;9.41;80.56;101674.83;1713294;83;21049;-89
2022/10/31 03:04:29;;;;;;;40.55;23.73;;;;;;;9.38;80.54;101676.00;1713682;83;22594;-87
2022/10/31 03:07:22;;;;;;;48.13;24.43;;;;;;;9.39;80.49;101681.75;1713836;82;21066;-86
2022/10/31 03:10:04;;;;;;;44.53;25.60;;;;;;;9.34;80.35;101674.07;1762575;80;21129;-86
2022/10/31 03:12:41;;;;;;;39.20;24.40;;;;;;;9.26;80.32;101677.67;1756952;79;21049;-86
2022/10/31 03:15:30;;;;;;;46.25;25.45;;;;;;;9.23;80.38;101684.52;1759076;81;21098;-86
2022/10/31 03:18:08;;;;;;;45.33;27.00;;;;;;;9.24;80.65;101677.13;1763578;80;22585;-86
2022/10/31 03:20:41;;;;;;;47.35;27.77;;;;;;;9.24;80.67;101677.13;1763642;81;21051;-86
2022/10/31 03:23:13;;;;;;;51.02;23.95;;;;;;;9.22;80.71;101679.68;1767063;81;21046;-86
2022/10/31 03:25:40;;;;;;;48.42;26.60;;;;;;;9.21;80.77;101679.19;1768938;80;21133;-86
2022/10/31 03:28:06;;;;;;;57.13;29.05;;;;;;;9.19;80.82;101682.16;1769111;81;21057;-86
2022/10/31 03:30:35;;;;;;;63.28;29.10;;;;;;;9.21;80.94;101692.31;1768752;81;21721;-86
2022/10/31 03:33:03;;;;;;;56.45;29.37;;;;;;;9.20;80.99;101693.59;1768704;81;21493;-86
2022/10/31 03:35:30;;;;;;;52.80;28.30;;;;;;;9.18;81.02;101694.83;1768638;81;21085;-87
2022/10/31 03:37:57;;;;;;;55.65;29.40;;;;;;;9.20;81.25;101690.96;1768317;81;21646;-86
2022/10/31 03:40:24;;;;;;;50.23;28.25;;;;;;;9.22;81.36;101690.19;1763702;80;22259;-87
2022/10/31 03:42:55;;;;;;;64.90;29.87;;;;;;;9.26;81.39;101689.91;1753775;81;21775;-87
2022/10/31 03:45:28;;;;;;;57.98;29.32;;;;;;;9.28;81.43;101693.08;1753667;81;21054;-86
2022/10/31 03:47:54;;;;;;;56.98;29.40;;;;;;;9.31;81.56;101692.34;1759077;81;21516;-87
2022/10/31 03:50:21;;;;;;;63.42;29.37;;;;;;;9.32;81.49;101688.88;1768854;81;21535;-86
2022/10/31 03:52:58;;;;;;;58.68;29.18;;;;;;;9.29;81.52;101693.58;1767990;81;20966;-87
2022/10/31 03:55:47;;;;;;;52.53;27.70;;;;;;;9.29;81.64;101689.64;1769295;81;21754;-86
2022/10/31 03:58:32;;;;;;;57.88;28.67;;;;;;;9.29;81.72;101690.95;1766947;81;20959;-86
2022/10/31 04:00:58;;;;;;;56.88;29.95;;;;;;;9.32;81.78;101687.55;1767608;80;21066;-87
2022/10/31 04:03:27;;;;;;;51.60;29.30;;;;;;;9.33;81.81;101689.38;1767217;80;21054;-87
2022/10/31 04:05:56;;;;;;;58.52;29.52;;;;;;;9.35;81.90;101687.70;1768235;81;21047;-87
2022/10/31 04:08:27;;;;;;;50.50;27.85;;;;;;;9.38;81.86;101693.08;1767903;80;22570;-86
2022/10/31 04:10:54;;;;;;;52.55;28.98;;;;;;;9.39;81.95;101690.95;1769382;80;21065;-86
2022/10/31 04:13:30;;;;;;;57.08;28.42;;;;;;;9.39;81.86;101688.75;1769203;81;21069;-86
2022/10/31 04:15:57;;;;;;;53.40;28.32;;;;;;;9.36;81.98;101686.86;1769641;81;21113;-87
2022/10/31 04:18:24;;;;;;;47.85;26.48;;;;;;;9.41;82.09;101689.28;1769368;81;21499;-86
2022/10/31 04:21:04;;;;;;;39.90;25.72;;;;;;;9.41;82.08;101686.66;1769355;81;21705;-86
2022/10/31 04:23:34;;;;;;;46.73;25.37;;;;;;;9.40;82.04;101686.16;1762664;81;21030;-87
2022/10/31 04:26:00;;;;;;;42.23;26.02;;;;;;;9.41;82.16;101685.77;1761760;81;21101;-86
2022/10/31 04:28:27;;;;;;;38.67;25.35;;;;;;;9.40;82.09;101681.33;1761600;81;21106;-86
2022/10/31 04:30:54;;;;;;;37.50;23.77;;;;;;;9.42;82.16;101685.84;1761725;81;21066;-86
2022/10/31 04:33:21;;;;;;;33.67;23.60;;;;;;;9.44;82.20;101680.23;1761658;81;21721;-86
2022/10/31 04:35:47;;;;;;;39.38;25.10;;;;;;;9.46;82.15;101675.95;1761685;81;22157;-87
2022/10/31 04:38:14;;;;;;;37.10;23.67;;;;;;;9.50;82.25;101676.98;1761594;81;21480;-87
2022/10/31 04:40:41;;;;;;;34.98;22.98;;;;;;;9.56;82.32;101671.09;1752681;80;22150;-86
2022/10/31 04:43:08;;;;;;;40.78;24.75;;;;;;;9.60;82.32;101675.22;1740105;82;21065;-86
2022/10/31 04:45:35;;;;;;;40.50;24.65;;;;;;;9.62;82.38;101665.67;1740117;82;21660;-86
2022/10/31 04:48:02;;;;;;;36.63;25.35;;;;;;;9.65;82.36;101665.81;1747861;81;21612;-87
2022/10/31 04:50:28;;;;;;;36.50;24.25;;;;;;;9.67;82.46;101665.89;1759897;81;21548;-87
2022/10/31 04:52:55;;;;;;;40.85;24.30;;;;;;;9.71;82.50;101669.12;1759886;81;21139;-87
2022/10/31 04:55:22;;;;;;;44.23;25.02;;;;;;;9.74;82.44;101669.23;1760143;81;21071;-86
2022/10/31 04:57:50;;;;;;;41.35;25.85;;;;;;;9.73;82.34;101674.03;1760051;81;23182;-87
2022/10/31 05:00:19;;;;;;;47.58;26.82;;;;;;;9.70;82.41;101673.50;1759549;81;21070;-87
2022/10/31 05:02:50;;;;;;;44.13;27.60;;;;;;;9.73;82.70;101669.66;1760721;80;21023;-86
2022/10/31 05:05:19;;;;;;;45.28;26.80;;;;;;;9.77;82.71;101669.81;1759686;81;21074;-87
2022/10/31 05:07:47;;;;;;;46.75;26.12;;;;;;;9.77;82.85;101667.18;1762817;81;20994;-87
2022/10/31 05:10:16;;;;;;;43.85;25.95;;;;;;;9.77;82.80;101665.87;1763286;81;21700;-86
2022/10/31 05:12:54;;;;;;;40.12;26.20;;;;;;;9.81;82.97;101670.41;1729425;80;21446;-87
2022/10/31 05:15:25;;;;;;;39.30;26.20;;;;;;;9.87;82.97;101668.04;1682578;85;21006;-86
2022/10/31 05:17:51;;;;;;;41.02;26.75;;;;;;;9.88;82.84;101665.91;1674771;85;21536;-86
2022/10/31 05:20:19;;;;;;;44.35;28.17;;;;;;;9.86;82.90;101671.09;1686100;85;21047;-86
2022/10/31 05:22:51;;;;;;;48.35;28.90;;;;;;;9.89;82.94;101675.18;1716187;83;21775;-87
2022/10/31 05:25:18;;;;;;;51.13;29.42;;;;;;;9.91;83.03;101667.36;1715502;83;21067;-87
2022/10/31 05:27:48;;;;;;;46.92;28.55;;;;;;;9.93;83.09;101669.21;1715598;83;21039;-86
2022/10/31 05:30:23;;;;;;;45.88;29.52;;;;;;;9.96;83.05;101662.28;1684798;85;21094;-86
2022/10/31 05:32:50;;;;;;;52.08;29.42;;;;;;;9.96;83.06;101662.28;1715379;82;21623;-86
2022/10/31 05:35:21;;;;;;;58.17;30.92;;;;;;;9.98;83.15;101657.98;1696965;84;21704;-87
2022/10/31 05:37:47;;;;;;;54.30;31.02;;;;;;;10.03;83.29;101659.08;1715495;83;21641;-89
2022/10/31 05:40:15;;;;;;;53.08;30.75;;;;;;;10.03;83.32;101659.97;1705162;82;21072;-88
2022/10/31 05:42:42;;;;;;;61.88;32.65;;;;;;;10.06;83.37;101656.55;1755444;81;21037;-86
2022/10/31 05:45:11;;;;;;;60.28;31.55;;;;;;;10.07;83.36;101662.31;1725124;82;21131;-86
2022/10/31 05:47:38;;;;;;;61.20;33.02;;;;;;;10.08;83.53;101662.81;1753720;80;21771;-87
2022/10/31 05:50:06;;;;;;;57.78;32.13;;;;;;;10.13;83.65;101659.92;1714857;83;21046;-87
2022/10/31 05:52:33;;;;;;;67.03;32.83;;;;;;;10.18;83.73;101669.34;1753749;81;21077;-86
2022/10/31 05:54:59;;;;;;;63.75;33.48;;;;;;;10.14;83.87;101659.11;1753769;81;21080;-87
2022/10/31 05:57:27;;;;;;;58.15;33.42;;;;;;;10.24;84.03;101675.73;1715246;82;21058;-86
2022/10/31 05:59:53;;;;;;;61.85;35.20;;;;;;;10.29;84.19;101675.52;1753566;81;22623;-86
2022/10/31 06:02:20;;;;;;;65.85;35.05;;;;;;;10.35;84.23;101677.53;1753595;80;21046;-87
2022/10/31 06:04:47;;;;;;;63.52;34.43;;;;;;;10.43;84.43;101684.42;1753919;81;21409;-87
2022/10/31 06:07:14;;;;;;;70.08;37.63;;;;;;;10.48;84.45;101678.94;1753595;81;21046;-87
2022/10/31 06:09:41;;;;;;;60.88;36.50;;;;;;;10.56;84.46;101684.50;1753426;81;21085;-86
2022/10/31 06:12:08;;;;;;;60.52;36.42;;;;;;;10.61;84.56;101693.06;1753032;81;22973;-87
2022/10/31 06:14:35;;;;;;;59.05;37.03;;;;;;;10.71;84.70;101687.73;1753432;81;21097;-86
2022/10/31 06:17:02;;;;;;;57.27;35.10;;;;;;;10.78;84.72;101691.53;1753376;81;21066;-87
2022/10/31 06:19:29;;;;;;;58.80;35.98;;;;;;;10.86;84.76;101692.71;1753882;81;21042;-87
2022/10/31 06:21:55;;;;;;;58.00;36.63;;;;;;;10.92;84.76;101688.98;1753941;81;21510;-87
2022/10/31 06:24:23;;;;;;;51.13;36.23;;;;;;;11.00;84.81;101696.79;1753324;81;22335;-86
2022/10/31 06:26:50;;;;;;;57.38;36.53;;;;;;;11.06;84.74;101692.17;1753213;81;21716;-87
2022/10/31 06:29:17;;;;;;;57.80;37.58;;;;;;;11.12;84.74;101691.51;1753596;81;21471;-87
2022/10/31 06:31:43;;;;;;;58.63;36.70;;;;;;;11.18;84.80;101690.41;1753566;81;21932;-87
2022/10/31 06:34:11;;;;;;;57.13;35.98;;;;;;;11.26;84.81;101693.82;1753296;81;21558;-86
2022/10/31 06:36:37;;;;;;;63.00;37.93;;;;;;;11.31;84.66;101692.66;1753499;81;21560;-86
2022/10/31 06:39:04;;;;;;;59.98;36.68;;;;;;;11.38;84.78;101690.73;1753627;81;21607;-87
2022/10/31 06:41:31;;;;;;;59.23;35.63;;;;;;;11.46;84.67;101687.94;1748673;81;21073;-87
2022/10/31 06:43:58;;;;;;;58.00;37.03;;;;;;;11.52;84.60;101682.00;1748335;81;21059;-86
2022/10/31 06:46:25;;;;;;;60.05;37.25;;;;;;;11.57;84.57;101684.81;1767741;81;21099;-86
2022/10/31 06:48:52;;;;;;;60.60;37.00;;;;;;;11.64;84.58;101688.16;1768926;81;22351;-87
2022/10/31 06:51:18;;;;;;;65.97;38.73;;;;;;;11.72;84.69;101685.36;1769279;81;21518;-86
2022/10/31 06:53:45;;;;;;;65.75;38.55;;;;;;;11.81;84.57;101701.50;1769157;81;21081;-87
2022/10/31 06:56:12;;;;;;;57.90;38.17;;;;;;;11.87;84.61;101700.39;1769151;81;22158;-87
2022/10/31 06:58:41;;;;;;;60.80;38.55;;;;;;;11.96;84.58;101703.82;1769089;81;21666;-87
2022/10/31 07:01:08;;;;;;;61.65;39.15;;;;;;;12.03;84.48;101706.23;1769129;81;21743;-87
2022/10/31 07:03:34;;;;;;;58.35;38.28;;;;;;;12.10;84.33;101705.59;1768975;81;21061;-87
2022/10/31 07:06:01;;;;;;;53.55;35.52;;;;;;;12.17;84.35;101704.08;1769202;81;21309;-87
2022/10/31 07:08:28;;;;;;;57.00;35.88;;;;;;;12.19;84.19;101699.74;1769173;81;21051;-87
2022/10/31 07:10:56;;;;;;;57.00;35.98;;;;;;;12.28;84.30;101714.58;1769329;81;21058;-87
2022/10/31 07:13:25;;;;;;;54.80;35.50;;;;;;;12.31;84.16;101712.02;1738612;79;21730;-86
2022/10/31 07:15:53;;;;;;;56.68;36.33;;;;;;;12.36;84.16;101713.07;1719691;82;21077;-87
2022/10/31 07:18:21;;;;;;;52.43;33.90;;;;;;;12.40;84.22;101713.64;1719581;82;21112;-86
2022/10/31 07:20:48;;;;;;;55.75;36.58;;;;;;;12.46;84.20;101708.98;1719966;83;22104;-87
2022/10/31 07:23:15;;;;;;;50.35;35.13;;;;;;;12.52;84.13;101708.28;1719154;82;21587;-87
2022/10/31 07:25:42;;;;;;;51.37;35.38;;;;;;;12.55;84.22;101705.76;1686116;85;21798;-87
2022/10/31 07:28:09;;;;;;;58.20;40.70;;;;;;;12.61;84.11;101705.94;1678104;85;21129;-86
2022/10/31 07:30:36;;;;;;;51.55;36.53;;;;;;;12.64;84.07;101710.91;1696850;84;21078;-87
2022/10/31 07:33:03;;;;;;;53.20;38.65;;;;;;;12.72;84.15;101708.94;1697070;84;21526;-87
2022/10/31 07:35:30;;;;;;;55.85;37.55;;;;;;;12.79;84.13;101710.92;1715821;83;21572;-86
2022/10/31 07:37:57;;;;;;;56.60;38.63;;;;;;;12.87;84.17;101715.13;1697243;84;22955;-87
2022/10/31 07:40:24;;;;;;;59.05;37.63;;;;;;;12.89;83.92;101720.92;1731415;81;21568;-86
2022/10/31 07:42:52;;;;;;;56.80;36.90;;;;;;;12.91;83.88;101720.97;1767528;80;21717;-87
2022/10/31 07:45:20;;;;;;;51.92;35.45;;;;;;;12.96;83.78;101723.34;1715462;83;21565;-87
2022/10/31 07:47:52;;;;;;;49.18;34.13;;;;;;;13.01;83.79;101730.56;1754341;81;21021;-87
2022/10/31 07:50:26;;;;;;;54.20;35.20;;;;;;;13.08;83.79;101734.27;1715703;83;21692;-87
2022/10/31 07:53:00;;;;;;;55.88;36.48;;;;;;;13.08;83.55;101729.41;1753457;81;21058;-87
2022/10/31 07:55:28;;;;;;;56.83;37.88;;;;;;;13.08;83.47;101732.95;1731914;81;21062;-87
2022/10/31 07:58:03;;;;;;;56.83;37.30;;;;;;;13.05;83.26;101729.34;1767801;81;21000;-87
2022/10/31 08:00:31;;;;;;;53.17;35.92;;;;;;;13.03;83.36;101735.47;1768061;81;21582;-87
2022/10/31 08:03:08;;;;;;;58.38;36.63;;;;;;;13.09;83.34;101743.12;1767695;81;21946;-87
2022/10/31 08:05:35;;;;;;;60.15;37.03;;;;;;;13.12;83.43;101739.23;1767201;81;21098;-86
2022/10/31 08:08:04;;;;;;;53.70;37.10;;;;;;;13.15;83.30;101736.25;1767397;81;21062;-87
2022/10/31 08:10:31;;;;;;;54.00;36.60;;;;;;;13.18;83.35;101737.68;1767561;81;21453;-87
2022/10/31 08:13:10;;;;;;;52.17;37.05;;;;;;;13.25;83.35;101739.17;1767605;81;21027;-87
2022/10/31 08:15:39;;;;;;;47.58;33.55;;;;;;;13.31;83.40;101726.20;1766516;81;21764;-87
2022/10/31 08:18:06;;;;;;;51.23;34.90;;;;;;;13.38;83.29;101730.78;1767577;81;21517;-87
2022/10/31 08:20:33;;;;;;;46.75;32.75;;;;;;;13.44;83.35;101730.06;1767307;81;21054;-86
2022/10/31 08:23:03;;;;;;;49.42;32.63;;;;;;;13.49;83.26;101721.84;1767600;81;21007;-87
2022/10/31 08:25:32;;;;;;;42.80;31.70;;;;;;;13.54;83.27;101725.09;1761531;81;21046;-87
2022/10/31 08:27:58;;;;;;;47.55;32.40;;;;;;;13.64;83.40;101732.86;1762379;81;21756;-87
2022/10/31 08:30:28;;;;;;;44.77;33.23;;;;;;;13.72;83.33;101731.34;1762188;81;21498;-87
2022/10/31 08:33:05;;;;;;;40.25;31.00;;;;;;;13.76;83.19;101731.89;1762189;81;21094;-86
2022/10/31 08:35:33;;;;;;;41.83;29.95;;;;;;;13.81;83.18;101732.00;1761985;81;21187;-87
2022/10/31 08:38:00;;;;;;;40.80;31.50;;;;;;;13.86;83.23;101728.17;1744248;81;21046;-87
2022/10/31 08:40:28;;;;;;;41.98;30.23;;;;;;;13.96;83.25;101732.84;1756695;81;21698;-87
2022/10/31 08:43:03;;;;;;;45.85;31.82;;;;;;;14.06;83.29;101738.87;1746911;82;20967;-86
2022/10/31 08:45:31;;;;;;;43.30;31.75;;;;;;;14.18;83.30;101729.02;1744769;82;21014;-87
2022/10/31 08:47:59;;;;;;;42.35;31.87;;;;;;;14.22;82.99;101725.59;1753142;81;21439;-87
2022/10/31 08:50:26;;;;;;;42.98;32.45;;;;;;;14.26;82.96;101728.78;1763503;81;21016;-87
2022/10/31 08:52:53;;;;;;;50.03;37.93;;;;;;;14.35;83.00;101735.63;1763290;80;21450;-87
2022/10/31 08:55:20;;;;;;;41.00;33.45;;;;;;;14.43;82.92;101741.56;1763329;81;21507;-86
2022/10/31 08:57:47;;;;;;;43.20;32.65;;;;;;;14.50;83.02;101740.42;1763397;81;21039;-86
2022/10/31 09:00:14;;;;;;;44.25;30.40;;;;;;;14.60;82.92;101749.95;1763182;81;20992;-86
2022/10/31 09:02:41;;;;;;;36.80;28.52;;;;;;;14.62;82.67;101749.16;1763227;81;20995;-86
2022/10/31 09:05:08;;;;;;;36.90;28.00;;;;;;;14.66;82.71;101743.06;1763494;81;21698;-87
2022/10/31 09:07:35;;;;;;;40.55;28.95;;;;;;;14.68;82.60;101752.39;1763306;81;20980;-86
2022/10/31 09:10:02;;;;;;;42.13;29.80;;;;;;;14.69;82.46;101758.13;1763350;81;21003;-86
2022/10/31 09:12:29;;;;;;;36.05;27.20;;;;;;;14.73;82.55;101757.34;1751471;79;21908;-86
2022/10/31 09:14:56;;;;;;;42.03;27.13;;;;;;;14.78;82.57;101747.75;1682923;84;21490;-86
2022/10/31 09:17:23;;;;;;;41.95;30.27;;;;;;;14.86;82.55;101739.55;1673624;85;22516;-86
2022/10/31 09:19:49;;;;;;;42.00;28.57;;;;;;;14.91;82.47;101728.63;1684205;85;21574;-86
2022/10/31 09:22:16;;;;;;;39.08;27.50;;;;;;;14.94;82.15;101727.38;1684094;85;22129;-86
2022/10/31 09:24:43;;;;;;;37.30;27.52;;;;;;;14.93;82.29;101723.36;1672489;85;21556;-86
2022/10/31 09:27:10;;;;;;;41.80;28.47;;;;;;;15.00;82.26;101716.42;1672356;85;21059;-86
2022/10/31 09:29:37;;;;;;;40.67;28.55;;;;;;;15.16;82.14;101726.11;1672277;85;21717;-86
2022/10/31 09:32:04;;;;;;;41.20;29.60;;;;;;;15.24;82.06;101726.27;1672238;85;21772;-86
2022/10/31 09:34:31;;;;;;;41.70;28.60;;;;;;;15.32;82.06;101731.73;1672235;85;21557;-86
2022/10/31 09:36:57;;;;;;;42.53;28.00;;;;;;;15.40;81.93;101736.76;1687403;83;21519;-86
2022/10/31 09:39:24;;;;;;;42.78;28.87;;;;;;;15.47;81.78;101740.45;1709544;83;21584;-86
2022/10/31 09:42:38;;;;;;;40.92;29.07;;;;;;;15.50;81.56;101747.12;1686435;83;21750;-86
2022/10/31 09:45:33;;;;;;;41.02;28.80;;;;;;;15.50;81.39;101736.52;1683595;83;25815;-87
2022/10/31 09:48:08;;;;;;;43.85;29.63;;;;;;;15.53;81.36;101729.95;1693429;83;21125;-86
2022/10/31 09:50:43;;;;;;;43.52;29.87;;;;;;;15.57;81.16;101729.14;1708662;83;22074;-87
2022/10/31 09:53:21;;;;;;;47.65;30.48;;;;;;;15.58;81.00;101728.30;1708924;83;21088;-86
2022/10/31 09:55:48;;;;;;;44.67;28.98;;;;;;;15.61;81.08;101733.64;1710414;83;21776;-86
2022/10/31 09:58:27;;;;;;;48.40;29.90;;;;;;;15.64;80.96;101727.52;1710796;83;21031;-86
2022/10/31 10:00:56;;;;;;;53.55;30.95;;;;;;;15.64;80.91;101736.37;1711071;83;20999;-86
2022/10/31 10:03:43;;;;;;;52.98;34.05;;;;;;;15.61;80.71;101738.95;1709836;83;22277;-86
2022/10/31 10:06:18;;;;;;;49.60;29.70;;;;;;;15.58;80.59;101741.56;1709364;83;21070;-86
2022/10/31 10:08:45;;;;;;;48.35;29.02;;;;;;;15.53;80.65;101740.56;1709441;83;21778;-86
2022/10/31 10:11:46;;;;;;;48.20;28.95;;;;;;;15.52;80.73;101748.97;1709406;82;21055;-86
2022/10/31 10:14:36;;;;;;;50.58;30.92;;;;;;;15.51;80.65;101745.84;1709691;83;21549;-86
2022/10/31 10:17:26;;;;;;;54.35;31.12;;;;;;;15.48;80.59;101742.22;1709251;83;21059;-86
2022/10/31 10:20:18;;;;;;;51.73;34.00;;;;;;;15.50;80.68;101741.41;1690025;83;21145;-86
2022/10/31 10:23:21;;;;;;;48.58;31.85;;;;;;;15.50;80.67;101739.16;1710569;83;21944;-87
2022/10/31 10:26:00;;;;;;;56.55;32.48;;;;;;;15.53;80.75;101733.93;1753423;80;21000;-86
2022/10/31 10:28:38;;;;;;;50.90;30.95;;;;;;;15.54;80.62;101741.01;1760747;80;21046;-86
2022/10/31 10:31:17;;;;;;;54.70;32.35;;;;;;;15.48;80.52;101746.20;1761522;80;21141;-87
2022/10/31 10:34:07;;;;;;;54.60;31.57;;;;;;;15.50;80.75;101736.10;1761851;81;21066;-86
2022/10/31 10:36:42;;;;;;;50.70;31.33;;;;;;;15.57;80.81;101729.14;1761354;81;21728;-85
2022/10/31 10:39:29;;;;;;;52.75;30.97;;;;;;;15.66;80.80;101733.31;1760088;81;21058;-87
2022/10/31 10:47:42;;;;;;;49.98;29.35;;;;;;;15.75;80.61;101727.33;1767225;81;21053;-86
2022/10/31 10:50:24;;;;;;;51.30;31.25;;;;;;;15.74;80.46;101729.06;1767349;81;21751;-86
2022/10/31 10:53:21;;;;;;;53.50;30.75;;;;;;;15.76;80.58;101728.22;1766760;81;21567;-86
2022/10/31 10:56:18;;;;;;;48.42;29.67;;;;;;;15.75;80.34;101722.02;1766079;80;21555;-87
2022/10/31 10:58:44;;;;;;;48.33;29.30;;;;;;;15.77;80.46;101720.73;1749334;81;21057;-87
2022/10/31 11:01:13;;;;;;;49.35;29.37;;;;;;;15.79;80.46;101727.84;1766321;81;21070;-89
2022/10/31 11:03:40;;;;;;;43.48;28.23;;;;;;;15.76;80.21;101726.45;1766744;81;21646;-86
2022/10/31 11:06:28;;;;;;;45.15;28.12;;;;;;;15.73;80.18;101728.63;1766795;81;20974;-87
2022/10/31 11:08:53;;;;;;;48.10;28.60;;;;;;;15.65;80.27;101714.25;1766175;81;22034;-87
2022/10/31 11:11:30;;;;;;;47.13;28.70;;;;;;;15.72;80.30;101724.13;1766638;80;21041;-87
2022/10/31 11:14:13;;;;;;;47.00;30.27;;;;;;;15.74;80.38;101726.41;1720206;79;21109;-87
2022/10/31 11:16:49;;;;;;;45.00;29.92;;;;;;;15.79;80.45;101722.98;1709452;83;21836;-86
2022/10/31 11:19:19;;;;;;;49.00;30.48;;;;;;;15.78;80.21;101722.06;1709261;83;21121;-85
2022/10/31 11:21:46;;;;;;;43.55;28.85;;;;;;;15.77;80.43;101720.73;1709449;83;21145;-86
2022/10/31 11:24:18;;;;;;;48.30;29.48;;;;;;;15.80;80.44;101729.62;1708706;82;21098;-86
2022/10/31 11:26:47;;;;;;;44.50;29.45;;;;;;;15.84;80.49;101724.86;1711343;83;20999;-86
2022/10/31 11:29:24;;;;;;;49.00;29.35;;;;;;;15.84;80.39;101713.31;1711382;83;21745;-87
2022/10/31 11:31:56;;;;;;;53.85;31.97;;;;;;;15.87;80.40;101718.70;1711355;83;21106;-87
2022/10/31 11:34:37;;;;;;;44.95;29.77;;;;;;;15.88;80.34;101713.86;1715787;82;20986;-87
2022/10/31 11:37:20;;;;;;;48.75;29.92;;;;;;;15.87;80.37;101714.27;1744043;82;20970;-87
2022/10/31 11:39:53;;;;;;;43.87;28.17;;;;;;;15.87;80.29;101723.56;1744102;81;21148;-87